createdAt,value
2019-06-01T00:01:48.972Z,99.90
2019-06-01T00:04:19.276Z,99.90
2019-06-01T00:06:49.384Z,99.90
2019-06-01T00:09:19.550Z,99.90
2019-06-01T00:11:50.046Z,99.90
2019-06-01T00:14:20.270Z,99.90
2019-06-01T00:16:50.505Z,99.90
2019-06-01T00:19:20.757Z,99.90
2019-06-01T00:21:52.177Z,99.90
2019-06-01T00:24:22.379Z,99.90
2019-06-01T00:26:52.407Z,99.90
2019-06-01T00:29:22.522Z,99.90
2019-06-01T00:31:52.538Z,99.90
2019-06-01T00:34:22.657Z,99.90
2019-06-01T00:36:54.481Z,99.90
2019-06-01T00:39:24.391Z,99.90
2019-06-01T00:41:54.554Z,99.90
2019-06-01T00:44:24.776Z,99.90
2019-06-01T00:46:55.105Z,99.90
2019-06-01T00:49:25.338Z,99.90
2019-06-01T00:51:57.196Z,99.90
2019-06-01T00:54:27.621Z,99.90
2019-06-01T00:56:57.807Z,99.90
2019-06-01T00:59:28.040Z,99.90
2019-06-01T01:01:58.508Z,99.90
2019-06-01T01:04:28.602Z,99.90
2019-06-01T01:06:58.963Z,99.90
2019-06-01T01:09:29.116Z,99.90
2019-06-01T01:11:59.389Z,99.90
2019-06-01T01:14:29.564Z,99.90
2019-06-01T01:16:59.613Z,99.90
2019-06-01T01:19:29.660Z,99.90
2019-06-01T01:21:59.781Z,99.90
2019-06-01T01:24:30.070Z,99.90
2019-06-01T01:27:00.092Z,99.90
2019-06-01T01:29:30.331Z,99.90
2019-06-01T01:32:00.339Z,99.90
2019-06-01T01:34:30.347Z,99.90
2019-06-01T01:37:00.470Z,99.90
2019-06-01T01:39:30.429Z,99.90
2019-06-01T01:42:00.612Z,99.90
2019-06-01T01:44:30.859Z,99.90
2019-06-01T01:47:00.968Z,99.90
2019-06-01T01:49:31.216Z,99.90
2019-06-01T01:52:01.615Z,99.90
2019-06-01T01:54:32.129Z,99.90
2019-06-01T01:57:02.482Z,99.90
2019-06-01T01:59:32.691Z,99.90
2019-06-01T02:02:03.057Z,99.90
2019-06-01T02:04:33.098Z,99.90
2019-06-01T02:07:03.102Z,1.00
2019-06-01T02:09:33.060Z,1.00
2019-06-01T02:12:02.930Z,1.00
2019-06-01T02:14:32.762Z,1.00
2019-06-01T02:17:03.010Z,1.00
2019-06-01T02:19:36.378Z,1.00
2019-06-01T02:22:05.266Z,1.00
2019-06-01T02:24:35.432Z,1.00
2019-06-01T02:27:05.512Z,1.00
2019-06-01T02:29:35.598Z,1.00
2019-06-01T02:32:06.746Z,1.00
2019-06-01T02:34:37.047Z,1.00
2019-06-01T02:37:07.014Z,1.00
2019-06-01T02:39:37.064Z,1.00
2019-06-01T02:42:08.526Z,1.00
2019-06-01T02:44:38.737Z,1.00
2019-06-01T02:47:08.858Z,1.00
2019-06-01T02:49:38.985Z,1.00
2019-06-01T02:52:09.100Z,1.00
2019-06-01T02:54:39.113Z,1.00
2019-06-01T02:57:09.344Z,1.00
2019-06-01T02:59:40.858Z,1.00
2019-06-01T03:02:14.831Z,1.00
2019-06-01T03:04:44.285Z,1.00
2019-06-01T03:07:14.631Z,1.00
2019-06-01T03:09:45.767Z,1.00
2019-06-01T03:12:18.989Z,1.00
2019-06-01T03:14:51.263Z,1.00
2019-06-01T03:17:24.324Z,1.00
2019-06-01T03:19:56.933Z,1.00
2019-06-01T03:22:28.491Z,1.00
2019-06-01T03:25:01.893Z,1.00
2019-06-01T03:27:33.823Z,1.00
2019-06-01T03:30:09.093Z,1.00
2019-06-01T03:32:38.231Z,1.00
2019-06-01T03:35:08.823Z,1.00
2019-06-01T03:37:38.793Z,1.00
2019-06-01T03:40:15.945Z,1.00
2019-06-01T03:42:40.787Z,1.00
2019-06-01T03:45:12.345Z,1.00
2019-06-01T03:47:43.516Z,1.00
2019-06-01T03:50:13.530Z,1.00
2019-06-01T03:52:43.471Z,1.00
2019-06-01T03:55:13.865Z,1.00
2019-06-01T03:57:44.146Z,1.00
2019-06-01T04:00:14.599Z,1.00
2019-06-01T04:02:44.733Z,1.00
2019-06-01T04:05:14.832Z,1.00
2019-06-01T04:07:45.061Z,1.00
2019-06-01T04:10:15.158Z,1.00
2019-06-01T04:12:45.402Z,1.00
2019-06-01T04:15:16.940Z,1.00
2019-06-01T04:17:47.078Z,1.00
2019-06-01T04:20:17.268Z,1.00
2019-06-01T04:22:47.624Z,1.00
2019-06-01T04:25:17.652Z,1.00
2019-06-01T04:27:47.761Z,1.00
2019-06-01T04:30:19.541Z,1.00
2019-06-01T04:32:50.586Z,99.90
2019-06-01T04:35:21.910Z,99.90
2019-06-01T04:37:51.904Z,99.90
2019-06-01T04:40:22.124Z,99.90
2019-06-01T04:42:52.351Z,99.90
2019-06-01T04:45:22.389Z,99.90
2019-06-01T04:47:52.362Z,99.90
2019-06-01T04:50:22.537Z,99.90
2019-06-01T04:52:52.656Z,99.90
2019-06-01T04:55:22.681Z,99.90
2019-06-01T04:57:52.859Z,99.90
2019-06-01T05:00:27.669Z,99.90
2019-06-01T05:03:04.896Z,99.90
2019-06-01T05:05:26.399Z,99.90
2019-06-01T05:07:56.571Z,99.90
2019-06-01T05:10:28.293Z,99.90
2019-06-01T05:12:59.387Z,99.90
2019-06-01T05:15:29.281Z,99.90
2019-06-01T05:17:59.136Z,99.90
2019-06-01T05:20:29.195Z,99.90
2019-06-01T05:22:59.186Z,99.90
2019-06-01T05:25:29.121Z,99.90
2019-06-01T05:27:59.228Z,99.90
2019-06-01T05:30:29.470Z,99.90
2019-06-01T05:32:59.602Z,99.90
2019-06-01T05:35:29.546Z,99.90
2019-06-01T05:37:59.644Z,99.90
2019-06-01T05:40:30.051Z,99.90
2019-06-01T05:43:00.275Z,99.90
2019-06-01T05:45:30.887Z,99.90
2019-06-01T05:48:01.130Z,99.90
2019-06-01T05:50:31.254Z,99.90
2019-06-01T05:53:01.369Z,99.90
2019-06-01T05:55:31.595Z,99.90
2019-06-01T05:58:02.053Z,99.90
2019-06-01T06:00:41.560Z,99.90
2019-06-01T06:03:14.709Z,99.90
2019-06-01T06:05:43.512Z,99.90
2019-06-01T06:08:14.447Z,99.90
2019-06-01T06:10:44.909Z,99.90
2019-06-01T06:13:15.280Z,99.90
2019-06-01T06:15:45.539Z,99.90
2019-06-01T06:18:15.769Z,99.90
2019-06-01T06:20:45.900Z,99.90
2019-06-01T06:23:16.446Z,99.90
2019-06-01T06:25:46.443Z,99.90
2019-06-01T06:28:16.674Z,99.90
2019-06-01T06:30:48.751Z,99.90
2019-06-01T06:33:19.406Z,99.90
2019-06-01T06:35:49.593Z,99.90
2019-06-01T06:38:19.846Z,99.90
2019-06-01T06:40:49.876Z,99.90
2019-06-01T06:43:27.523Z,99.90
2019-06-01T06:45:51.588Z,99.90
2019-06-01T06:48:21.674Z,99.90
2019-06-01T06:50:51.636Z,99.90
2019-06-01T06:53:28.232Z,99.90
2019-06-01T06:55:53.291Z,99.90
2019-06-01T06:58:24.405Z,99.90
2019-06-01T07:00:54.591Z,99.90
2019-06-01T07:03:25.161Z,99.90
2019-06-01T07:05:55.540Z,99.90
2019-06-01T07:08:25.984Z,99.90
2019-06-01T07:10:56.110Z,99.90
2019-06-01T07:13:27.525Z,99.90
2019-06-01T07:15:57.608Z,99.90
2019-06-01T07:18:27.889Z,99.90
2019-06-01T07:20:57.824Z,99.90
2019-06-01T07:23:28.045Z,99.90
2019-06-01T07:25:58.143Z,99.90
2019-06-01T07:28:28.549Z,99.90
2019-06-01T07:30:58.671Z,99.90
2019-06-01T07:33:28.698Z,99.90
2019-06-01T07:35:58.689Z,99.90
2019-06-01T07:38:29.037Z,99.90
2019-06-01T07:40:59.286Z,99.90
2019-06-01T07:43:29.300Z,99.90
2019-06-01T07:45:59.382Z,99.90
2019-06-01T07:48:29.536Z,99.90
2019-06-01T07:50:59.569Z,99.90
2019-06-01T07:53:29.757Z,99.90
2019-06-01T07:56:00.107Z,99.90
2019-06-01T07:58:30.167Z,99.90
2019-06-01T08:01:00.440Z,99.90
2019-06-01T08:03:33.515Z,99.90
2019-06-01T08:06:02.311Z,99.90
2019-06-01T08:08:32.220Z,99.90
2019-06-01T08:11:02.286Z,99.90
2019-06-01T08:13:35.411Z,99.90
2019-06-01T08:16:03.890Z,99.90
2019-06-01T08:18:33.813Z,99.90
2019-06-01T08:21:04.066Z,99.90
2019-06-01T08:23:34.322Z,99.90
2019-06-01T08:26:04.460Z,99.90
2019-06-01T08:28:34.526Z,99.90
2019-06-01T08:31:04.723Z,99.90
2019-06-01T08:33:35.108Z,99.90
2019-06-01T08:36:05.395Z,99.90
2019-06-01T08:38:35.260Z,99.90
2019-06-01T08:41:05.409Z,99.90
2019-06-01T08:43:35.446Z,99.90
2019-06-01T08:46:05.490Z,99.90
2019-06-01T08:48:35.409Z,99.90
2019-06-01T08:51:05.366Z,99.90
2019-06-01T08:53:35.342Z,99.90
2019-06-01T08:56:05.354Z,99.50
2019-06-01T08:58:35.341Z,99.60
2019-06-01T09:01:05.380Z,99.90
2019-06-01T09:03:43.682Z,99.90
2019-06-01T09:06:07.367Z,99.90
2019-06-01T09:08:37.364Z,99.90
2019-06-01T09:11:07.606Z,99.90
2019-06-01T09:13:37.486Z,99.90
2019-06-01T09:16:07.775Z,99.90
2019-06-01T09:18:37.938Z,99.90
2019-06-01T09:21:07.991Z,98.80
2019-06-01T09:23:38.341Z,98.20
2019-06-01T09:26:08.435Z,98.40
2019-06-01T09:28:38.479Z,99.00
2019-06-01T09:31:08.402Z,99.20
2019-06-01T09:33:38.435Z,99.30
2019-06-01T09:36:08.542Z,99.50
2019-06-01T09:38:38.399Z,99.90
2019-06-01T09:41:08.560Z,99.90
2019-06-01T09:43:38.758Z,99.00
2019-06-01T09:46:08.889Z,98.10
2019-06-01T09:48:39.084Z,99.20
2019-06-01T09:51:09.327Z,99.90
2019-06-01T09:53:39.459Z,99.90
2019-06-01T09:56:09.672Z,99.90
2019-06-01T09:58:39.761Z,99.90
2019-06-01T10:01:10.275Z,99.90
2019-06-01T10:03:40.260Z,99.90
2019-06-01T10:06:13.813Z,99.90
2019-06-01T10:08:42.413Z,99.90
2019-06-01T10:11:12.740Z,99.90
2019-06-01T10:13:42.805Z,99.90
2019-06-01T10:16:13.579Z,99.90
2019-06-01T10:18:44.006Z,99.90
2019-06-01T10:21:14.243Z,99.90
2019-06-01T10:23:49.087Z,99.90
2019-06-01T10:26:16.517Z,99.90
2019-06-01T10:28:48.436Z,99.90
2019-06-01T10:31:18.969Z,99.90
2019-06-01T10:33:51.378Z,99.90
2019-06-01T10:36:21.629Z,99.90
2019-06-01T10:38:52.052Z,99.90
2019-06-01T10:41:22.527Z,98.70
2019-06-01T10:43:53.077Z,99.90
2019-06-01T10:46:23.681Z,99.30
2019-06-01T10:48:54.087Z,98.80
2019-06-01T10:51:24.408Z,98.70
2019-06-01T10:53:54.509Z,97.30
2019-06-01T10:56:24.755Z,98.40
2019-06-01T10:59:00.340Z,97.30
2019-06-01T11:01:26.786Z,98.80
2019-06-01T11:03:56.913Z,99.90
2019-06-01T11:06:36.648Z,99.90
2019-06-01T11:08:58.655Z,99.90
2019-06-01T11:11:28.672Z,99.90
2019-06-01T11:13:58.733Z,99.90
2019-06-01T11:16:28.804Z,99.90
2019-06-01T11:18:58.850Z,99.90
2019-06-01T11:21:28.915Z,99.90
2019-06-01T11:23:58.922Z,99.90
2019-06-01T11:26:29.093Z,99.90
2019-06-01T11:28:59.121Z,99.90
2019-06-01T11:31:29.187Z,99.90
2019-06-01T11:33:59.395Z,99.90
2019-06-01T11:36:29.335Z,99.90
2019-06-01T11:38:59.369Z,99.90
2019-06-01T11:41:29.392Z,99.90
2019-06-01T11:43:59.596Z,99.90
2019-06-01T11:46:29.724Z,99.90
2019-06-01T11:48:59.826Z,99.90
2019-06-01T11:51:30.589Z,99.90
2019-06-01T11:54:00.885Z,99.90
2019-06-01T11:56:31.597Z,99.90
2019-06-01T11:59:02.008Z,99.90
2019-06-01T12:01:32.165Z,99.90
2019-06-01T12:04:02.723Z,99.90
2019-06-01T12:06:33.220Z,99.90
2019-06-01T12:09:03.568Z,99.90
2019-06-01T12:11:33.757Z,99.90
2019-06-01T12:14:04.352Z,99.90
2019-06-01T12:16:34.509Z,99.90
2019-06-01T12:19:05.001Z,99.90
2019-06-01T12:21:36.844Z,99.90
2019-06-01T12:24:07.321Z,99.90
2019-06-01T12:26:37.590Z,99.90
2019-06-01T12:29:07.598Z,99.90
2019-06-01T12:31:37.830Z,99.90
2019-06-01T12:34:08.120Z,99.90
2019-06-01T12:36:39.666Z,99.90
2019-06-01T12:39:09.999Z,99.90
2019-06-01T12:41:41.493Z,99.90
2019-06-01T12:44:13.455Z,99.90
2019-06-01T12:46:43.811Z,99.90
2019-06-01T12:49:14.305Z,99.90
2019-06-01T12:51:44.696Z,99.90
2019-06-01T12:54:15.170Z,99.90
2019-06-01T12:56:45.373Z,99.90
2019-06-01T12:59:15.430Z,99.90
2019-06-01T13:01:47.116Z,99.90
2019-06-01T13:04:17.338Z,99.90
2019-06-01T13:06:51.119Z,99.90
2019-06-01T13:09:19.234Z,99.90
2019-06-01T13:11:49.573Z,99.90
2019-06-01T13:14:19.808Z,99.90
2019-06-01T13:17:06.382Z,99.90
2019-06-01T13:19:21.992Z,99.90
2019-06-01T13:21:52.338Z,99.90
2019-06-01T13:24:22.551Z,99.90
2019-06-01T13:26:52.653Z,99.90
2019-06-01T13:29:23.111Z,99.90
2019-06-01T13:31:53.206Z,99.90
2019-06-01T13:34:23.440Z,99.90
2019-06-01T13:36:53.801Z,99.90
2019-06-01T13:39:24.471Z,99.90
2019-06-01T13:41:55.027Z,99.90
2019-06-01T13:44:25.153Z,99.90
2019-06-01T13:46:55.369Z,99.90
2019-06-01T13:49:25.602Z,99.90
2019-06-01T13:51:55.633Z,99.90
2019-06-01T13:54:25.876Z,99.90
2019-06-01T13:56:56.352Z,99.90
2019-06-01T13:59:26.509Z,99.90
2019-06-01T14:01:56.558Z,99.90
2019-06-01T14:04:26.931Z,99.90
2019-06-01T14:06:57.261Z,99.90
2019-06-01T14:09:27.476Z,99.90
2019-06-01T14:11:57.566Z,99.90
2019-06-01T14:14:27.812Z,99.90
2019-06-01T14:16:57.936Z,99.90
2019-06-01T14:19:28.053Z,99.90
2019-06-01T14:21:58.026Z,99.90
2019-06-01T14:24:28.079Z,99.90
2019-06-01T14:26:58.013Z,99.90
2019-06-01T14:29:28.020Z,99.90
2019-06-01T14:31:58.377Z,99.90
2019-06-01T14:34:28.468Z,99.90
2019-06-01T14:36:58.807Z,99.90
2019-06-01T14:39:29.026Z,99.90
2019-06-01T14:41:59.238Z,99.90
2019-06-01T14:44:29.371Z,99.90
2019-06-01T14:47:05.391Z,99.90
2019-06-01T14:49:31.323Z,99.90
2019-06-01T14:52:01.453Z,99.90
2019-06-01T14:54:33.247Z,99.90
2019-06-01T14:57:03.352Z,99.90
2019-06-01T14:59:33.581Z,99.90
2019-06-01T15:02:03.733Z,99.90
2019-06-01T15:04:35.565Z,99.90
2019-06-01T15:07:05.774Z,99.90
2019-06-01T15:09:36.058Z,99.90
2019-06-01T15:12:06.643Z,99.90
2019-06-01T15:14:36.858Z,99.90
2019-06-01T15:17:07.193Z,99.90
2019-06-01T15:19:37.295Z,99.90
2019-06-01T15:22:07.571Z,99.90
2019-06-01T15:24:37.842Z,99.90
2019-06-01T15:27:08.057Z,99.90
2019-06-01T15:29:38.021Z,99.90
2019-06-01T15:32:08.127Z,99.90
2019-06-01T15:34:38.124Z,99.90
2019-06-01T15:37:08.429Z,99.90
2019-06-01T15:39:39.965Z,99.90
2019-06-01T15:42:10.078Z,99.90
2019-06-01T15:44:40.355Z,99.90
2019-06-01T15:47:10.627Z,99.90
2019-06-01T15:49:40.904Z,99.90
2019-06-01T15:52:11.038Z,99.90
2019-06-01T15:54:41.389Z,99.90
2019-06-01T15:57:11.439Z,99.90
2019-06-01T15:59:41.600Z,99.90
2019-06-01T16:02:11.830Z,99.90
2019-06-01T16:04:42.022Z,99.90
2019-06-01T16:07:12.251Z,99.90
2019-06-01T16:09:44.104Z,99.90
2019-06-01T16:12:14.120Z,99.90
2019-06-01T16:14:44.041Z,99.90
2019-06-01T16:17:14.091Z,99.90
2019-06-01T16:19:44.177Z,99.90
2019-06-01T16:22:14.539Z,99.90
2019-06-01T16:24:44.731Z,99.90
2019-06-01T16:27:14.673Z,99.90
2019-06-01T16:29:45.160Z,99.90
2019-06-01T16:32:15.320Z,99.90
2019-06-01T16:34:45.428Z,99.90
2019-06-01T16:37:15.717Z,99.90
2019-06-01T16:39:58.804Z,99.90
2019-06-01T16:42:17.725Z,99.90
2019-06-01T16:44:47.716Z,99.90
2019-06-01T16:47:17.918Z,99.90
2019-06-01T16:49:48.097Z,99.90
2019-06-01T16:52:18.394Z,99.90
2019-06-01T16:54:48.624Z,99.90
2019-06-01T16:57:18.751Z,99.90
2019-06-01T16:59:49.428Z,99.90
2019-06-01T17:02:19.505Z,99.90
2019-06-01T17:04:49.593Z,99.90
2019-06-01T17:07:19.744Z,99.90
2019-06-01T17:09:50.070Z,99.90
2019-06-01T17:12:20.267Z,99.90
2019-06-01T17:14:50.409Z,99.90
2019-06-01T17:17:20.395Z,99.90
2019-06-01T17:19:50.708Z,99.90
2019-06-01T17:22:20.866Z,99.90
2019-06-01T17:24:51.237Z,99.90
2019-06-01T17:27:21.336Z,99.90
2019-06-01T17:29:51.437Z,99.90
2019-06-01T17:32:24.663Z,99.90
2019-06-01T17:34:53.505Z,99.90
2019-06-01T17:37:23.955Z,99.90
2019-06-01T17:39:54.082Z,99.90
2019-06-01T17:42:24.066Z,99.90
2019-06-01T17:44:54.315Z,99.90
2019-06-01T17:47:27.316Z,99.90
2019-06-01T17:49:56.430Z,99.90
2019-06-01T17:52:26.585Z,99.90
2019-06-01T17:54:56.781Z,99.90
2019-06-01T17:57:28.150Z,99.90
2019-06-01T17:59:58.566Z,99.90
2019-06-01T18:02:28.655Z,99.90
2019-06-01T18:04:58.835Z,99.90
2019-06-01T18:07:29.098Z,99.90
2019-06-01T18:10:02.410Z,99.90
2019-06-01T18:12:32.613Z,99.90
2019-06-01T18:15:03.945Z,99.90
2019-06-01T18:17:34.285Z,99.90
2019-06-01T18:20:06.849Z,99.90
2019-06-01T18:22:36.977Z,99.90
2019-06-01T18:25:12.499Z,99.90
2019-06-01T18:27:42.740Z,99.90
2019-06-01T18:30:13.237Z,99.90
2019-06-01T18:32:43.287Z,99.90
2019-06-01T18:35:14.748Z,99.90
2019-06-01T18:37:45.722Z,99.90
2019-06-01T18:40:16.819Z,99.90
2019-06-01T18:42:49.606Z,99.90
2019-06-01T18:45:21.375Z,99.90
2019-06-01T18:47:51.314Z,99.90
2019-06-01T18:50:21.454Z,99.90
2019-06-01T18:52:51.440Z,99.90
2019-06-01T18:55:21.486Z,99.90
2019-06-01T18:57:54.534Z,99.90
2019-06-01T19:00:24.630Z,99.90
2019-06-01T19:02:54.776Z,99.90
2019-06-01T19:05:24.797Z,99.90
2019-06-01T19:07:54.859Z,99.90
2019-06-01T19:10:25.041Z,99.90
2019-06-01T19:12:55.154Z,99.90
2019-06-01T19:15:28.792Z,99.90
2019-06-01T19:17:57.138Z,99.90
2019-06-01T19:20:27.093Z,99.90
2019-06-01T19:22:57.353Z,99.90
2019-06-01T19:25:27.341Z,99.90
2019-06-01T19:27:57.331Z,99.90
2019-06-01T19:30:38.422Z,99.90
2019-06-01T19:33:13.253Z,99.90
2019-06-01T19:35:41.384Z,99.90
2019-06-01T19:38:11.598Z,99.90
2019-06-01T19:40:43.227Z,99.90
2019-06-01T19:43:13.505Z,99.90
2019-06-01T19:45:43.560Z,99.90
2019-06-01T19:48:14.555Z,99.90
2019-06-01T19:50:44.781Z,99.90
2019-06-01T19:53:14.855Z,99.90
2019-06-01T19:55:44.869Z,99.90
2019-06-01T19:58:16.021Z,99.90
2019-06-01T20:00:46.493Z,99.90
2019-06-01T20:03:20.010Z,99.90
2019-06-01T20:05:48.444Z,99.90
2019-06-01T20:08:18.333Z,99.90
2019-06-01T20:10:48.278Z,99.90
2019-06-01T20:13:19.310Z,99.90
2019-06-01T20:15:49.211Z,99.90
2019-06-01T20:18:19.306Z,99.90
2019-06-01T20:20:49.409Z,99.90
2019-06-01T20:23:19.627Z,99.90
2019-06-01T20:25:49.559Z,99.90
2019-06-01T20:28:19.724Z,99.90
2019-06-01T20:30:49.725Z,99.90
2019-06-01T20:33:20.437Z,99.90
2019-06-01T20:35:50.493Z,99.90
2019-06-01T20:38:20.729Z,99.90
2019-06-01T20:40:50.797Z,99.90
2019-06-01T20:43:20.962Z,99.90
2019-06-01T20:45:51.244Z,99.90
2019-06-01T20:48:22.824Z,99.90
2019-06-01T20:50:53.102Z,99.90
2019-06-01T20:53:23.296Z,99.90
2019-06-01T20:55:53.540Z,99.90
2019-06-01T20:58:24.905Z,99.90
2019-06-01T21:00:55.187Z,99.90
2019-06-01T21:03:25.087Z,99.90
2019-06-01T21:05:55.022Z,99.90
2019-06-01T21:08:25.229Z,99.90
2019-06-01T21:10:55.396Z,99.90
2019-06-01T21:13:25.504Z,99.90
2019-06-01T21:15:55.735Z,99.90
2019-06-01T21:18:25.973Z,99.90
2019-06-01T21:20:56.496Z,99.90
2019-06-01T21:23:26.848Z,99.90
2019-06-01T21:28:45.807Z,99.90
2019-06-01T21:31:16.916Z,99.90
2019-06-01T21:33:47.176Z,99.90
2019-06-01T21:36:17.528Z,99.90
2019-06-01T21:38:47.747Z,99.90
2019-06-01T21:41:17.846Z,99.90
2019-06-01T21:43:47.874Z,99.90
2019-06-01T21:46:17.901Z,99.90
2019-06-01T21:48:47.984Z,99.90
2019-06-01T21:51:18.110Z,99.90
2019-06-01T21:53:48.111Z,99.90
2019-06-01T21:56:20.166Z,99.90
2019-06-01T21:58:49.937Z,99.90
2019-06-01T22:01:20.672Z,99.90
2019-06-01T22:03:50.806Z,99.90
2019-06-01T22:06:21.621Z,99.90
2019-06-01T22:08:53.032Z,99.90
2019-06-01T22:11:23.601Z,99.90
2019-06-01T22:13:53.716Z,99.90
2019-06-01T22:16:24.025Z,99.90
2019-06-01T22:18:54.123Z,99.90
2019-06-01T22:21:24.394Z,99.90
2019-06-01T22:23:54.513Z,99.90
2019-06-01T22:26:26.247Z,99.90
2019-06-01T22:28:56.307Z,99.90
2019-06-01T22:31:27.110Z,99.90
2019-06-01T22:33:57.449Z,99.90
2019-06-01T22:36:31.583Z,99.90
2019-06-01T22:39:01.945Z,99.90
2019-06-01T22:41:32.345Z,99.90
2019-06-01T22:44:02.655Z,99.90
2019-06-01T22:46:33.046Z,99.90
2019-06-01T22:49:03.566Z,99.90
2019-06-01T22:51:33.855Z,99.90
2019-06-01T22:54:04.197Z,99.90
2019-06-01T22:56:34.671Z,99.90
2019-06-01T22:59:05.861Z,99.90
2019-06-01T23:01:36.067Z,99.90
2019-06-01T23:04:06.156Z,99.90
2019-06-01T23:06:36.387Z,99.90
2019-06-01T23:09:08.819Z,99.90
2019-06-01T23:11:39.039Z,99.90
2019-06-01T23:14:09.642Z,99.90
2019-06-01T23:16:40.136Z,99.90
2019-06-01T23:19:13.498Z,99.90
2019-06-01T23:21:44.392Z,99.90
2019-06-01T23:24:14.789Z,99.90
2019-06-01T23:26:44.983Z,99.90
2019-06-01T23:29:15.024Z,99.90
2019-06-01T23:31:45.215Z,99.90
2019-06-01T23:34:15.426Z,99.90
2019-06-01T23:36:45.575Z,99.90
2019-06-01T23:39:15.675Z,99.90
2019-06-01T23:41:45.856Z,99.90
2019-06-01T23:44:15.791Z,1.00
2019-06-01T23:46:46.079Z,1.00
2019-06-01T23:49:16.120Z,99.90
2019-06-01T23:51:46.412Z,99.90
2019-06-01T23:54:16.658Z,99.90
2019-06-01T23:56:46.729Z,99.90
2019-06-01T23:59:16.866Z,99.90
